Cap Castillo — A8PI5 — position and weather

sailwx.info

Track history (hours):
 
Tides and Currents Weather Stations Pressure Air Temp Water Temp Dewpoint Dewpoint Depression Visibility Wind Speed Wind Dir Waves Ship Positions

Cap Castillo

Last reported at 2017-Feb-25 19:34 UTC. Time now 2017-Feb-28 10:03 UTC.
Position S 22°58' W 041°44'.

Length 215 m; draft 10.1 m.

Type: Ship. MMSI: 636091558.

Date/timePositionNaut miles runAvg speedWind from/ knotsBaromVisibWave heightAir tempDewpointWater temp
2017-Feb-25 19:34S 22°58' W 041°44'5913.5
2017-Feb-25 15:10S 23°06' W 042°48'914.7
2017-Feb-25 14:33S 23°05' W 042°58'1212.1
2017-Feb-25 13:33S 22°58' W 043°08'7 6.6
2017-Feb-25 12:33S 22°53' W 043°12'0 0.3
2017-Feb-25 11:28S 22°53' W 043°12'0 0.0
2017-Feb-25 10:28S 22°53' W 043°12'0 0.0
2017-Feb-25 09:28S 22°53' W 043°12'0 0.0
2017-Feb-25 08:28S 22°53' W 043°12'0 0.0
2017-Feb-25 07:22S 22°53' W 043°12'0 0.0
2017-Feb-25 06:28S 22°53' W 043°12'0 0.0
2017-Feb-25 05:28S 22°53' W 043°12'0 0.0
2017-Feb-25 04:28S 22°53' W 043°12'0 0.0
2017-Feb-25 03:33S 22°53' W 043°12'7 7.0
2017-Feb-25 02:33S 22°58' W 043°08'3 2.5
2017-Feb-25 01:33S 23°01' W 043°07'3 3.1
2017-Feb-25 00:33S 23°04' W 043°06'1 0.5
2017-Feb-24 22:30S 23°04' W 043°06'1 0.6
2017-Feb-24 21:31S 23°05' W 043°07'18311.5
2017-Feb-24 05:33S 24°21' W 046°08'1111.4
2017-Feb-24 04:33S 24°16' W 046°19'1010.4
2017-Feb-24 03:33S 24°06' W 046°23'9 8.6
2017-Feb-24 02:34S 23°59' W 046°17'1 0.3
2017-Feb-24 00:16S 23°58' W 046°18'0 0.0
2017-Feb-23 22:23S 23°58' W 046°18'0 0.0
2017-Feb-23 21:33S 23°58' W 046°18'0 0.0
2017-Feb-23 20:32S 23°58' W 046°18'0 0.0
2017-Feb-23 19:33S 23°58' W 046°18'0 0.0
2017-Feb-23 18:32S 23°58' W 046°18'0 0.0
2017-Feb-23 17:25S 23°58' W 046°18'0 0.0
2017-Feb-23 16:03S 23°58' W 046°18'0 0.0
2017-Feb-23 13:29S 23°58' W 046°18'0 0.0
2017-Feb-23 11:30S 23°58' W 046°18'0 0.0
2017-Feb-23 10:33S 23°58' W 046°18'3 3.4
2017-Feb-23 09:33S 24°01' W 046°20'6 5.9
2017-Feb-23 08:33S 24°06' W 046°22'0 0.2
2017-Feb-23 07:33S 24°06' W 046°22'0 0.1
2017-Feb-23 06:33S 24°06' W 046°22'0 0.1
2017-Feb-23 05:33S 24°06' W 046°22'0 0.1
2017-Feb-23 04:33S 24°06' W 046°22'0 0.0
2017-Feb-23 03:33S 24°06' W 046°22'0 0.0
2017-Feb-23 02:33S 24°06' W 046°22'0 0.0
2017-Feb-23 01:33S 24°06' W 046°22'0 0.0
2017-Feb-23 00:33S 24°06' W 046°22'0 0.0
2017-Feb-22 23:33S 24°06' W 046°22'4 3.5
2017-Feb-22 22:33S 24°09' W 046°24'1010.0
2017-Feb-22 21:33S 24°18' W 046°29'1010.4
2017-Feb-22 20:33S 24°28' W 046°33'1110.9
2017-Feb-22 19:33S 24°38' W 046°38'1412.7
2017-Feb-22 18:29S 24°47' W 046°49'1212.9
2017-Feb-22 17:33S 24°55' W 046°59'  
2017-Feb-20 13:33S 25°55' W 047°40'1413.1
2017-Feb-20 12:27S 25°43' W 047°31'1213.1
2017-Feb-20 11:29S 25°33' W 047°23'6114.4
2017-Feb-20 07:13S 24°44' W 046°42'914.2
2017-Feb-20 06:33S 24°36' W 046°36'1413.9
2017-Feb-20 05:33S 24°23' W 046°30'1414.2
2017-Feb-20 04:33S 24°10' W 046°24'1211.7
2017-Feb-20 03:33S 23°60' W 046°19'2 0.2
2017-Feb-19 20:06S 23°58' W 046°18'0 0.0
2017-Feb-19 18:06S 23°58' W 046°18'0 0.0
2017-Feb-19 16:21S 23°58' W 046°18'1 0.5
2017-Feb-19 14:27S 23°59' W 046°17'8 8.5
2017-Feb-19 13:33S 24°05' W 046°22'1514.6
2017-Feb-19 12:33S 24°19' W 046°16'  
Track history (hours):
 
Tides and Currents Weather Stations Pressure Air Temp Water Temp Dewpoint Dewpoint Depression Visibility Wind Speed Wind Dir Waves Ship Positions

Cap Castillo

Last reported at 2017-Feb-25 19:34 UTC. Time now 2017-Feb-28 10:03 UTC.
Position S 22°58' W 041°44'.

Length 215 m; draft 10.1 m.

Type: Ship. MMSI: 636091558.

Date/timePositionNaut miles runAvg speedWind from/ knotsBaromVisibWave heightAir tempDewpointWater temp
2017-Feb-25 19:34S 22°58' W 041°44'5913.5
2017-Feb-25 15:10S 23°06' W 042°48'914.7
2017-Feb-25 14:33S 23°05' W 042°58'1212.1
2017-Feb-25 13:33S 22°58' W 043°08'7 6.6
2017-Feb-25 12:33S 22°53' W 043°12'0 0.3
2017-Feb-25 11:28S 22°53' W 043°12'0 0.0
2017-Feb-25 10:28S 22°53' W 043°12'0 0.0
2017-Feb-25 09:28S 22°53' W 043°12'0 0.0
2017-Feb-25 08:28S 22°53' W 043°12'0 0.0
2017-Feb-25 07:22S 22°53' W 043°12'0 0.0
2017-Feb-25 06:28S 22°53' W 043°12'0 0.0
2017-Feb-25 05:28S 22°53' W 043°12'0 0.0
2017-Feb-25 04:28S 22°53' W 043°12'0 0.0
2017-Feb-25 03:33S 22°53' W 043°12'7 7.0
2017-Feb-25 02:33S 22°58' W 043°08'3 2.5
2017-Feb-25 01:33S 23°01' W 043°07'3 3.1
2017-Feb-25 00:33S 23°04' W 043°06'1 0.5
2017-Feb-24 22:30S 23°04' W 043°06'1 0.6
2017-Feb-24 21:31S 23°05' W 043°07'18311.5
2017-Feb-24 05:33S 24°21' W 046°08'1111.4
2017-Feb-24 04:33S 24°16' W 046°19'1010.4
2017-Feb-24 03:33S 24°06' W 046°23'9 8.6
2017-Feb-24 02:34S 23°59' W 046°17'1 0.3
2017-Feb-24 00:16S 23°58' W 046°18'0 0.0
2017-Feb-23 22:23S 23°58' W 046°18'0 0.0
2017-Feb-23 21:33S 23°58' W 046°18'0 0.0
2017-Feb-23 20:32S 23°58' W 046°18'0 0.0
2017-Feb-23 19:33S 23°58' W 046°18'0 0.0
2017-Feb-23 18:32S 23°58' W 046°18'0 0.0
2017-Feb-23 17:25S 23°58' W 046°18'0 0.0
2017-Feb-23 16:03S 23°58' W 046°18'0 0.0
2017-Feb-23 13:29S 23°58' W 046°18'0 0.0
2017-Feb-23 11:30S 23°58' W 046°18'0 0.0
2017-Feb-23 10:33S 23°58' W 046°18'3 3.4
2017-Feb-23 09:33S 24°01' W 046°20'6 5.9
2017-Feb-23 08:33S 24°06' W 046°22'0 0.2
2017-Feb-23 07:33S 24°06' W 046°22'0 0.1
2017-Feb-23 06:33S 24°06' W 046°22'0 0.1
2017-Feb-23 05:33S 24°06' W 046°22'0 0.1
2017-Feb-23 04:33S 24°06' W 046°22'0 0.0
2017-Feb-23 03:33S 24°06' W 046°22'0 0.0
2017-Feb-23 02:33S 24°06' W 046°22'0 0.0
2017-Feb-23 01:33S 24°06' W 046°22'0 0.0
2017-Feb-23 00:33S 24°06' W 046°22'0 0.0
2017-Feb-22 23:33S 24°06' W 046°22'4 3.5
2017-Feb-22 22:33S 24°09' W 046°24'1010.0
2017-Feb-22 21:33S 24°18' W 046°29'1010.4
2017-Feb-22 20:33S 24°28' W 046°33'1110.9
2017-Feb-22 19:33S 24°38' W 046°38'1412.7
2017-Feb-22 18:29S 24°47' W 046°49'1212.9
2017-Feb-22 17:33S 24°55' W 046°59'  
2017-Feb-20 13:33S 25°55' W 047°40'1413.1
2017-Feb-20 12:27S 25°43' W 047°31'1213.1
2017-Feb-20 11:29S 25°33' W 047°23'6114.4
2017-Feb-20 07:13S 24°44' W 046°42'914.2
2017-Feb-20 06:33S 24°36' W 046°36'1413.9
2017-Feb-20 05:33S 24°23' W 046°30'1414.2
2017-Feb-20 04:33S 24°10' W 046°24'1211.7
2017-Feb-20 03:33S 23°60' W 046°19'2 0.2
2017-Feb-19 20:06S 23°58' W 046°18'0 0.0
2017-Feb-19 18:06S 23°58' W 046°18'0 0.0
2017-Feb-19 16:21S 23°58' W 046°18'1 0.5
2017-Feb-19 14:27S 23°59' W 046°17'8 8.5
2017-Feb-19 13:33S 24°05' W 046°22'1514.6
2017-Feb-19 12:33S 24°19' W 046°16'  

Dump ship's entire track history